createdAt,value
2022-08-03T00:02:18.104Z,1.77
2022-08-03T00:04:45.537Z,1.40
2022-08-03T00:07:12.766Z,1.45
2022-08-03T00:09:40.012Z,1.50
2022-08-03T00:12:07.434Z,1.48
2022-08-03T00:14:34.810Z,1.50
2022-08-03T00:17:02.111Z,1.65
2022-08-03T00:19:29.483Z,1.40
2022-08-03T00:21:56.723Z,1.48
2022-08-03T00:24:23.964Z,1.50
2022-08-03T00:26:51.220Z,1.50
2022-08-03T00:29:18.472Z,1.60
2022-08-03T00:31:52.218Z,1.70
2022-08-03T00:34:34.590Z,1.30
2022-08-03T00:37:07.573Z,1.30
2022-08-03T00:39:34.826Z,1.70
2022-08-03T00:42:03.581Z,1.50
2022-08-03T00:44:31.944Z,1.30
2022-08-03T00:46:59.188Z,1.20
2022-08-03T00:49:28.031Z,1.50
2022-08-03T00:51:55.366Z,1.30
2022-08-03T00:54:23.063Z,1.38
2022-08-03T00:57:00.088Z,1.30
2022-08-03T00:59:27.990Z,1.30
2022-08-03T01:01:55.296Z,1.45
2022-08-03T01:04:22.571Z,1.40
2022-08-03T01:06:53.381Z,1.40
2022-08-03T01:09:38.425Z,1.50
2022-08-03T01:12:18.997Z,1.35
2022-08-03T01:14:58.781Z,1.55
2022-08-03T01:17:40.298Z,1.50
2022-08-03T01:20:12.349Z,1.50
2022-08-03T01:23:03.522Z,1.50
2022-08-03T01:25:46.948Z,1.38
2022-08-03T01:28:49.134Z,1.40
2022-08-03T01:31:18.959Z,1.53
2022-08-03T01:33:49.484Z,1.45
2022-08-03T01:36:19.492Z,1.60
2022-08-03T01:39:01.151Z,1.60
2022-08-03T01:41:33.464Z,1.67
2022-08-03T01:44:30.182Z,1.30
2022-08-03T01:46:51.213Z,1.38
2022-08-03T01:49:18.563Z,1.30
2022-08-03T01:52:03.317Z,1.90
2022-08-03T01:54:37.048Z,1.20
2022-08-03T01:57:04.463Z,1.60
2022-08-03T01:59:33.754Z,1.40
2022-08-03T02:02:16.065Z,1.58
2022-08-03T02:04:48.478Z,1.27
2022-08-03T02:07:15.708Z,1.38
2022-08-03T02:09:45.068Z,1.48
2022-08-03T02:12:12.599Z,1.35
2022-08-03T02:14:39.947Z,1.23
2022-08-03T02:17:07.776Z,1.55
2022-08-03T02:19:35.824Z,1.50
2022-08-03T02:22:04.727Z,1.35
2022-08-03T02:24:32.180Z,1.60
2022-08-03T02:26:59.409Z,1.50
2022-08-03T02:29:40.243Z,1.42
2022-08-03T02:32:11.278Z,1.60
2022-08-03T02:34:38.530Z,1.40
2022-08-03T02:37:06.000Z,1.63
2022-08-03T02:39:33.466Z,1.50
2022-08-03T02:42:03.441Z,1.40
2022-08-03T02:44:32.474Z,1.20
2022-08-03T02:47:05.314Z,1.23
2022-08-03T02:49:42.153Z,1.50
2022-08-03T02:52:20.170Z,1.40
2022-08-03T02:54:49.039Z,1.77
2022-08-03T02:57:16.304Z,1.45
2022-08-03T02:59:43.521Z,1.98
2022-08-03T03:02:10.865Z,1.35
2022-08-03T03:04:38.294Z,1.67
2022-08-03T03:07:15.415Z,1.60
2022-08-03T03:09:43.321Z,1.48
2022-08-03T03:12:11.420Z,1.50
2022-08-03T03:14:38.663Z,1.58
2022-08-03T03:17:09.978Z,1.70
2022-08-03T03:19:37.806Z,1.35
2022-08-03T03:22:06.246Z,1.42
2022-08-03T03:24:33.444Z,1.75
2022-08-03T03:27:00.676Z,2.03
2022-08-03T03:29:27.902Z,1.33
2022-08-03T03:31:55.428Z,1.50
2022-08-03T03:34:22.662Z,1.52
2022-08-03T03:36:51.083Z,1.67
2022-08-03T03:39:18.311Z,1.77
2022-08-03T03:41:45.538Z,1.60
2022-08-03T03:44:12.774Z,1.40
2022-08-03T03:46:40.000Z,1.95
2022-08-03T03:49:07.457Z,1.42
2022-08-03T03:51:34.858Z,1.60
2022-08-03T03:54:04.144Z,1.52
2022-08-03T03:56:31.450Z,1.60
2022-08-03T03:58:58.702Z,1.60
2022-08-03T04:01:26.607Z,1.52
2022-08-03T04:03:53.844Z,1.50
2022-08-03T04:06:39.596Z,1.75
2022-08-03T04:09:25.192Z,1.60
2022-08-03T04:11:53.891Z,1.33
2022-08-03T04:14:26.536Z,1.63
2022-08-03T04:17:07.357Z,1.90
2022-08-03T04:19:40.599Z,1.60
2022-08-03T04:22:10.165Z,1.55
2022-08-03T04:24:42.127Z,1.50
2022-08-03T04:27:11.367Z,1.50
2022-08-03T04:29:48.119Z,1.60
2022-08-03T04:32:17.079Z,2.08
2022-08-03T04:34:44.534Z,1.60
2022-08-03T04:37:13.152Z,1.80
2022-08-03T04:39:41.266Z,1.60
2022-08-03T04:42:09.242Z,1.70
2022-08-03T04:44:41.008Z,1.70
2022-08-03T04:47:08.543Z,1.70
2022-08-03T04:49:39.279Z,1.58
2022-08-03T04:52:07.878Z,1.60
2022-08-03T04:54:42.539Z,1.73
2022-08-03T04:57:22.192Z,1.60
2022-08-03T05:02:29.155Z,1.67
2022-08-03T05:04:56.374Z,1.65
2022-08-03T05:07:25.190Z,1.80
2022-08-03T05:09:57.543Z,1.70
2022-08-03T05:12:32.794Z,1.70
2022-08-03T05:15:01.136Z,2.05
2022-08-03T05:17:28.635Z,1.95
2022-08-03T05:19:55.947Z,1.80
2022-08-03T05:22:23.563Z,1.48
2022-08-03T05:24:50.808Z,1.95
2022-08-03T05:27:19.427Z,1.63
2022-08-03T05:29:47.171Z,1.70
2022-08-03T05:32:14.686Z,1.80
2022-08-03T05:34:42.259Z,1.80
2022-08-03T05:37:09.613Z,1.45
2022-08-03T05:39:36.919Z,1.52
2022-08-03T05:42:04.307Z,1.88
2022-08-03T05:44:32.106Z,1.80
2022-08-03T05:46:59.521Z,1.45
2022-08-03T05:49:26.866Z,1.50
2022-08-03T05:52:00.071Z,1.50
2022-08-03T05:54:57.206Z,1.75
2022-08-03T05:57:27.923Z,1.60
2022-08-03T05:59:58.256Z,1.50
2022-08-03T06:02:27.048Z,1.40
2022-08-03T06:04:54.561Z,1.52
2022-08-03T06:07:21.815Z,1.38
2022-08-03T06:10:35.229Z,1.33
2022-08-03T06:12:36.442Z,1.63
2022-08-03T06:15:04.623Z,1.55
2022-08-03T06:17:37.728Z,1.70
2022-08-03T06:20:06.211Z,1.40
2022-08-03T06:22:33.673Z,1.30
2022-08-03T06:25:05.056Z,1.30
2022-08-03T06:27:38.049Z,1.35
2022-08-03T06:30:06.364Z,1.48
2022-08-03T06:32:33.761Z,1.30
2022-08-03T06:35:01.153Z,1.60
2022-08-03T06:37:28.830Z,1.33
2022-08-03T06:39:56.120Z,1.50
2022-08-03T06:42:23.322Z,2.00
2022-08-03T06:44:52.530Z,1.42
2022-08-03T06:47:19.790Z,1.35
2022-08-03T06:50:12.793Z,1.60
2022-08-03T06:52:37.847Z,1.38
2022-08-03T06:55:06.885Z,2.17
2022-08-03T06:57:34.140Z,1.38
2022-08-03T07:00:07.736Z,1.60
2022-08-03T07:02:39.796Z,1.55
2022-08-03T07:05:08.018Z,1.30
2022-08-03T07:07:35.275Z,1.75
2022-08-03T07:10:02.646Z,1.40
2022-08-03T07:12:30.156Z,1.45
2022-08-03T07:15:01.308Z,1.30
2022-08-03T07:17:30.331Z,1.65
2022-08-03T07:19:57.900Z,1.63
2022-08-03T07:22:25.191Z,1.40
2022-08-03T07:24:52.427Z,1.60
2022-08-03T07:27:19.679Z,1.52
2022-08-03T07:29:46.903Z,1.40
2022-08-03T07:32:14.263Z,1.75
2022-08-03T07:34:41.666Z,1.30
2022-08-03T07:37:08.911Z,1.70
2022-08-03T07:39:36.144Z,1.63
2022-08-03T07:42:03.529Z,1.40
2022-08-03T07:44:30.756Z,1.40
2022-08-03T07:46:58.000Z,1.60
2022-08-03T07:49:25.547Z,1.50
2022-08-03T07:52:11.495Z,1.60
2022-08-03T07:54:38.950Z,1.40
2022-08-03T07:57:06.289Z,1.40
2022-08-03T08:00:01.454Z,1.50
2022-08-03T08:02:22.432Z,1.60
2022-08-03T08:04:49.684Z,1.63
2022-08-03T08:07:16.951Z,1.40
2022-08-03T08:09:45.581Z,1.30
2022-08-03T08:12:15.192Z,1.42
2022-08-03T08:14:45.766Z,1.90
2022-08-03T08:17:13.892Z,1.40
2022-08-03T08:19:45.970Z,1.30
2022-08-03T08:22:23.495Z,1.15
2022-08-03T08:24:59.359Z,1.30
2022-08-03T08:27:26.726Z,1.10
2022-08-03T08:29:55.207Z,1.40
2022-08-03T08:32:23.691Z,0.98
2022-08-03T08:34:50.967Z,1.08
2022-08-03T08:37:18.287Z,1.40
2022-08-03T08:39:45.550Z,0.90
2022-08-03T08:42:12.880Z,1.05
2022-08-03T08:44:40.568Z,1.10
2022-08-03T08:47:07.828Z,1.20
2022-08-03T08:49:36.304Z,1.10
2022-08-03T08:52:04.032Z,1.10
2022-08-03T08:54:52.208Z,1.30
2022-08-03T08:57:41.553Z,0.90
2022-08-03T09:00:10.242Z,1.10
2022-08-03T09:02:37.537Z,1.10
2022-08-03T09:05:07.711Z,1.08
2022-08-03T09:07:35.210Z,0.90
2022-08-03T09:10:12.646Z,0.88
2022-08-03T09:12:44.250Z,0.85
2022-08-03T09:15:21.900Z,0.60
2022-08-03T09:17:51.282Z,1.00
2022-08-03T09:20:19.451Z,1.02
2022-08-03T09:22:57.251Z,0.98
2022-08-03T09:25:33.085Z,0.98
2022-08-03T09:28:06.602Z,1.13
2022-08-03T09:30:35.357Z,0.82
2022-08-03T09:33:03.983Z,0.85
2022-08-03T09:38:23.947Z,1.08
2022-08-03T09:40:53.834Z,0.90
2022-08-03T09:43:27.417Z,0.77
2022-08-03T09:46:05.669Z,0.70
2022-08-03T09:48:37.214Z,0.77
2022-08-03T09:51:14.371Z,0.63
2022-08-03T09:53:58.608Z,0.88
2022-08-03T09:56:40.612Z,1.00
2022-08-03T09:59:08.235Z,1.02
2022-08-03T10:01:35.945Z,0.90
2022-08-03T10:04:05.144Z,0.77
2022-08-03T10:06:32.692Z,1.00
2022-08-03T10:09:09.479Z,0.70
2022-08-03T10:11:41.396Z,0.88
2022-08-03T10:14:19.494Z,1.08
2022-08-03T10:16:47.511Z,0.80
2022-08-03T10:19:15.568Z,0.90
2022-08-03T10:21:47.981Z,0.98
2022-08-03T10:24:15.660Z,0.70
2022-08-03T10:26:49.767Z,0.80
2022-08-03T10:31:57.834Z,0.90
2022-08-03T10:34:35.366Z,1.10
2022-08-03T10:37:03.119Z,0.80
2022-08-03T10:39:30.640Z,0.82
2022-08-03T10:41:59.814Z,1.00
2022-08-03T10:44:33.636Z,0.90
2022-08-03T10:47:01.011Z,0.75
2022-08-03T10:49:34.213Z,0.98
2022-08-03T10:55:01.134Z,0.90
2022-08-03T10:57:43.418Z,0.80
2022-08-03T11:00:14.157Z,0.90
2022-08-03T11:03:04.283Z,1.05
2022-08-03T11:05:35.876Z,0.93
2022-08-03T11:08:28.738Z,0.90
2022-08-03T11:11:18.761Z,0.93
2022-08-03T11:14:05.263Z,0.70
2022-08-03T11:16:38.060Z,0.80
2022-08-03T11:19:07.046Z,1.00
2022-08-03T11:21:53.375Z,0.95
2022-08-03T11:24:47.118Z,0.90
2022-08-03T11:27:18.898Z,0.75
2022-08-03T11:29:56.619Z,0.82
2022-08-03T11:32:46.887Z,0.82
2022-08-03T11:35:30.099Z,0.82
2022-08-03T11:38:03.345Z,0.80
2022-08-03T11:40:39.497Z,0.95
2022-08-03T11:45:35.444Z,0.90
2022-08-03T11:48:23.042Z,0.80
2022-08-03T11:50:50.279Z,0.90
2022-08-03T11:53:18.262Z,0.90
2022-08-03T11:55:48.853Z,0.85
2022-08-03T11:59:19.067Z,1.00
2022-08-03T12:01:08.108Z,0.85
2022-08-03T12:03:35.519Z,0.85
2022-08-03T12:06:04.394Z,1.10
2022-08-03T12:08:33.124Z,1.05
2022-08-03T12:11:02.246Z,1.20
2022-08-03T12:14:27.080Z,0.90
2022-08-03T12:16:30.189Z,0.80
2022-08-03T12:19:02.343Z,0.82
2022-08-03T12:21:29.707Z,1.00
2022-08-03T12:24:04.171Z,0.90
2022-08-03T12:26:58.351Z,1.00
2022-08-03T12:29:26.431Z,0.88
2022-08-03T12:31:53.674Z,0.95
2022-08-03T12:34:20.965Z,1.00
2022-08-03T12:36:52.816Z,1.13
2022-08-03T12:39:23.669Z,0.85
2022-08-03T12:41:53.562Z,0.93
2022-08-03T12:44:35.734Z,0.77
2022-08-03T12:47:03.690Z,1.00
2022-08-03T12:49:48.287Z,0.70
2022-08-03T12:52:16.307Z,0.75
2022-08-03T12:54:44.170Z,1.10
2022-08-03T12:57:15.604Z,0.80
2022-08-03T12:59:53.285Z,0.90
2022-08-03T13:02:25.527Z,0.75
2022-08-03T13:04:54.307Z,1.08
2022-08-03T13:07:22.199Z,0.70
2022-08-03T13:09:54.433Z,0.95
2022-08-03T13:12:28.593Z,0.80
2022-08-03T13:14:57.055Z,0.60
2022-08-03T13:17:24.694Z,0.80
2022-08-03T13:19:52.489Z,1.10
2022-08-03T13:22:24.617Z,0.90
2022-08-03T13:24:53.311Z,0.80
2022-08-03T13:28:02.149Z,0.80
2022-08-03T13:30:08.782Z,0.82
2022-08-03T13:32:36.256Z,0.90
2022-08-03T13:35:03.794Z,0.90
2022-08-03T13:37:32.291Z,0.90
2022-08-03T13:40:03.064Z,0.75
2022-08-03T13:42:32.673Z,0.93
2022-08-03T13:45:00.312Z,1.00
2022-08-03T13:47:28.023Z,0.77
2022-08-03T13:50:01.629Z,0.70
2022-08-03T13:54:57.447Z,0.80
2022-08-03T13:58:04.970Z,1.20
2022-08-03T14:00:12.397Z,0.80
2022-08-03T14:02:39.750Z,0.98
2022-08-03T14:05:08.116Z,0.90
2022-08-03T14:07:35.363Z,0.90
2022-08-03T14:10:02.667Z,0.93
2022-08-03T14:12:29.972Z,0.90
2022-08-03T14:15:01.121Z,1.10
2022-08-03T14:17:42.293Z,0.75
2022-08-03T14:20:38.925Z,1.10
2022-08-03T14:23:03.242Z,1.00
2022-08-03T14:25:31.627Z,0.68
2022-08-03T14:28:11.247Z,1.00
2022-08-03T14:30:38.523Z,2.40
2022-08-03T14:33:05.718Z,1.77
2022-08-03T14:35:32.979Z,0.90
2022-08-03T14:38:00.190Z,0.80
2022-08-03T14:40:27.420Z,0.70
2022-08-03T14:42:55.244Z,1.00
2022-08-03T14:45:22.521Z,1.17
2022-08-03T14:50:33.784Z,0.85
2022-08-03T14:50:43.220Z,1.00
2022-08-03T14:53:14.579Z,1.05
2022-08-03T14:55:50.353Z,0.90
2022-08-03T14:58:21.487Z,0.80
2022-08-03T15:00:49.846Z,1.00
2022-08-03T15:03:20.253Z,0.90
2022-08-03T15:05:47.958Z,1.00
2022-08-03T15:08:15.436Z,3.58
2022-08-03T15:10:45.251Z,0.70
2022-08-03T15:13:13.250Z,1.10
2022-08-03T15:15:40.996Z,0.80
2022-08-03T15:18:08.443Z,1.10
2022-08-03T15:20:44.384Z,1.00
2022-08-03T15:23:13.267Z,1.25
2022-08-03T15:26:28.551Z,0.90
2022-08-03T15:28:27.823Z,1.20
2022-08-03T15:30:55.180Z,3.17
2022-08-03T15:33:22.456Z,3.50
2022-08-03T15:35:49.887Z,1.85
2022-08-03T15:38:17.535Z,1.00
2022-08-03T15:40:45.076Z,0.98
2022-08-03T15:43:12.294Z,0.93
2022-08-03T15:45:40.556Z,1.08
2022-08-03T15:48:09.249Z,1.00
2022-08-03T15:50:36.476Z,0.95
2022-08-03T15:53:04.144Z,1.10
2022-08-03T15:55:31.627Z,1.20
2022-08-03T15:59:11.423Z,1.00
2022-08-03T16:00:46.151Z,1.30
2022-08-03T16:03:13.755Z,1.10
2022-08-03T16:05:41.002Z,0.90
2022-08-03T16:08:13.581Z,0.85
2022-08-03T16:10:41.281Z,1.00
2022-08-03T16:13:08.647Z,0.80
2022-08-03T16:15:38.467Z,0.93
2022-08-03T16:18:06.765Z,1.33
2022-08-03T16:20:35.339Z,1.20
2022-08-03T16:23:10.315Z,1.10
2022-08-03T16:25:39.938Z,1.00
2022-08-03T16:28:13.170Z,1.00
2022-08-03T16:30:42.074Z,1.10
2022-08-03T16:33:09.325Z,0.80
2022-08-03T16:35:36.635Z,0.90
2022-08-03T16:38:09.624Z,0.95
2022-08-03T16:40:37.740Z,0.75
2022-08-03T16:43:18.108Z,1.00
2022-08-03T16:45:46.948Z,0.90
2022-08-03T16:48:15.288Z,1.10
2022-08-03T16:50:42.609Z,0.90
2022-08-03T16:53:12.811Z,1.10
2022-08-03T16:55:53.522Z,1.02
2022-08-03T16:58:34.585Z,1.13
2022-08-03T17:01:21.972Z,1.02
2022-08-03T17:04:01.533Z,0.70
2022-08-03T17:06:34.213Z,1.00
2022-08-03T17:09:09.776Z,0.90
2022-08-03T17:11:47.354Z,0.80
2022-08-03T17:14:21.808Z,0.88
2022-08-03T17:16:53.022Z,1.20
2022-08-03T17:19:23.211Z,0.90
2022-08-03T17:22:04.169Z,0.85
2022-08-03T17:24:41.142Z,1.13
2022-08-03T17:28:41.655Z,1.33
2022-08-03T17:30:03.764Z,1.13
2022-08-03T17:32:33.095Z,1.00
2022-08-03T17:35:01.406Z,1.00
2022-08-03T17:37:57.656Z,1.00
2022-08-03T17:40:17.449Z,1.20
2022-08-03T17:42:45.708Z,1.42
2022-08-03T17:45:18.878Z,1.15
2022-08-03T17:47:46.191Z,1.05
2022-08-03T17:50:33.929Z,1.40
2022-08-03T17:53:15.665Z,1.10
2022-08-03T17:56:04.736Z,1.10
2022-08-03T17:58:42.333Z,1.10
2022-08-03T18:02:00.458Z,1.02
2022-08-03T18:04:21.720Z,1.40
2022-08-03T18:06:58.798Z,1.35
2022-08-03T18:10:06.853Z,1.42
2022-08-03T18:12:25.693Z,1.35
2022-08-03T18:15:01.457Z,1.40
2022-08-03T18:17:54.978Z,1.15
2022-08-03T18:20:34.271Z,1.00
2022-08-03T18:23:08.606Z,1.20
2022-08-03T18:25:45.606Z,1.20
2022-08-03T18:28:19.124Z,1.30
2022-08-03T18:30:53.603Z,1.20
2022-08-03T18:34:17.565Z,1.17
2022-08-03T18:36:11.501Z,1.20
2022-08-03T18:38:50.907Z,1.60
2022-08-03T18:41:26.451Z,1.45
2022-08-03T18:44:08.520Z,1.23
2022-08-03T18:47:01.551Z,1.20
2022-08-03T18:49:59.582Z,1.30
2022-08-03T18:52:37.348Z,1.40
2022-08-03T18:55:33.674Z,1.50
2022-08-03T18:58:15.753Z,1.48
2022-08-03T19:00:57.021Z,1.73
2022-08-03T19:03:25.296Z,1.40
2022-08-03T19:06:17.502Z,1.63
2022-08-03T19:08:50.247Z,1.75
2022-08-03T19:12:13.363Z,1.77
2022-08-03T19:14:39.245Z,1.40
2022-08-03T19:17:09.923Z,1.60
2022-08-03T19:22:27.214Z,1.80
2022-08-03T19:24:55.416Z,1.50
2022-08-03T19:27:27.064Z,1.80
2022-08-03T19:29:58.907Z,1.95
2022-08-03T19:32:28.876Z,1.38
2022-08-03T19:34:56.804Z,1.60
2022-08-03T19:37:27.562Z,1.42
2022-08-03T19:40:10.817Z,1.90
2022-08-03T19:42:56.283Z,2.00
2022-08-03T19:46:04.542Z,1.67
2022-08-03T19:48:28.856Z,2.20
2022-08-03T19:50:56.903Z,2.22
2022-08-03T19:53:35.181Z,1.95
2022-08-03T19:56:06.840Z,1.85
2022-08-03T19:58:34.361Z,2.22
2022-08-03T20:01:19.302Z,1.77
2022-08-03T20:03:48.061Z,2.45
2022-08-03T20:06:16.905Z,1.85
2022-08-03T20:08:44.516Z,2.22
2022-08-03T20:11:11.821Z,1.88
2022-08-03T20:13:39.345Z,2.30
2022-08-03T20:16:06.643Z,2.05
2022-08-03T20:18:39.294Z,1.92
2022-08-03T20:21:14.998Z,2.15
2022-08-03T20:24:01.831Z,2.05
2022-08-03T20:26:30.497Z,2.70
2022-08-03T20:29:09.201Z,2.55
2022-08-03T20:31:37.566Z,2.63
2022-08-03T20:34:05.867Z,2.38
2022-08-03T20:36:33.208Z,2.15
2022-08-03T20:39:00.721Z,2.15
2022-08-03T20:41:28.072Z,1.90
2022-08-03T20:43:58.806Z,2.05
2022-08-03T20:46:30.039Z,2.22
2022-08-03T20:49:04.341Z,2.70
2022-08-03T20:51:49.034Z,2.35
2022-08-03T20:54:29.965Z,1.98
2022-08-03T20:57:04.160Z,1.98
2022-08-03T20:59:50.675Z,2.60
2022-08-03T21:02:29.483Z,2.35
2022-08-03T21:05:03.672Z,2.30
2022-08-03T21:08:05.548Z,2.40
2022-08-03T21:10:32.420Z,2.22
2022-08-03T21:13:10.907Z,1.75
2022-08-03T21:13:14.974Z,2.50
2022-08-03T21:16:06.246Z,2.38
2022-08-03T21:18:30.525Z,2.33
2022-08-03T21:20:59.179Z,2.53
2022-08-03T21:23:39.994Z,2.42
2022-08-03T21:26:13.780Z,2.20
2022-08-03T21:28:41.089Z,2.22
2022-08-03T21:31:09.040Z,2.20
2022-08-03T21:33:36.299Z,2.50
2022-08-03T21:36:03.790Z,2.38
2022-08-03T21:38:32.336Z,2.20
2022-08-03T21:40:59.711Z,2.28
2022-08-03T21:43:27.117Z,2.30
2022-08-03T21:46:02.605Z,2.38
2022-08-03T21:48:35.249Z,2.85
2022-08-03T21:51:02.886Z,2.17
2022-08-03T21:54:02.364Z,2.20
2022-08-03T21:56:20.168Z,2.30
2022-08-03T21:58:51.858Z,2.50
2022-08-03T22:01:21.832Z,2.38
2022-08-03T22:03:52.849Z,2.45
2022-08-03T22:06:22.192Z,2.20
2022-08-03T22:08:54.189Z,2.30
2022-08-03T22:11:21.458Z,2.60
2022-08-03T22:13:48.784Z,2.78
2022-08-03T22:16:16.104Z,2.83
2022-08-03T22:18:44.512Z,2.42
2022-08-03T22:21:13.060Z,2.50
2022-08-03T22:23:48.818Z,2.50
2022-08-03T22:26:32.608Z,2.67
2022-08-03T22:29:04.740Z,2.40
2022-08-03T22:31:57.705Z,2.72
2022-08-03T22:34:26.352Z,2.60
2022-08-03T22:36:57.266Z,2.72
2022-08-03T22:39:28.839Z,2.50
2022-08-03T22:41:59.458Z,2.42
2022-08-03T22:44:27.243Z,2.20
2022-08-03T22:46:54.532Z,2.70
2022-08-03T22:49:21.780Z,2.97
2022-08-03T22:51:50.614Z,2.72
2022-08-03T22:54:17.860Z,2.70
2022-08-03T22:56:47.839Z,2.38
2022-08-03T22:59:40.976Z,2.80
2022-08-03T23:02:20.106Z,2.65
2022-08-03T23:04:59.503Z,2.58
2022-08-03T23:07:37.243Z,2.70
2022-08-03T23:10:06.715Z,2.75
2022-08-03T23:12:37.860Z,2.60
2022-08-03T23:15:07.297Z,2.35
2022-08-03T23:17:34.744Z,2.97
2022-08-03T23:20:21.962Z,2.58
2022-08-03T23:22:54.471Z,3.00
2022-08-03T23:25:22.018Z,2.90
2022-08-03T23:28:04.960Z,2.30
2022-08-03T23:30:34.726Z,2.50
2022-08-03T23:33:01.984Z,2.10
2022-08-03T23:36:28.778Z,2.80
2022-08-03T23:38:35.932Z,2.58
2022-08-03T23:41:04.028Z,2.38
2022-08-03T23:43:50.909Z,2.22
2022-08-03T23:46:19.834Z,2.20
2022-08-03T23:48:47.154Z,2.80
2022-08-03T23:51:34.548Z,2.40
2022-08-03T23:54:31.876Z,2.17
2022-08-03T23:57:20.894Z,2.63
